Time;durP1;ratioP1;P1;durP2;ratioP2;P2;SDS_P1;SDS_P2;PMS_P1;PMS_P2;Temp;Humidity;BMP_temperature;BMP_pressure;BME280_temperature;BME280_humidity;BME280_pressure;Samples;Min_cycle;Max_cycle;Signal;HPM_P1;HPM_P2
2021/09/23 00:01:02;;;;;;;9.38;5.63;;;;;;;;;;4975457;28;20058;-67
2021/09/23 00:05:58;;;;;;;7.80;6.13;;;;;;;;;;4974174;28;20057;-67
2021/09/23 00:08:24;;;;;;;9.70;6.00;;;;;;;;;;4975253;28;20058;-67
2021/09/23 00:10:51;;;;;;;10.27;6.45;;;;;;;;;;4975143;28;20047;-67
2021/09/23 00:13:18;;;;;;;8.32;5.78;;;;;;;;;;4975040;28;20051;-67
2021/09/23 00:15:45;;;;;;;7.68;5.80;;;;;;;;;;4975301;28;20407;-67
2021/09/23 00:18:13;;;;;;;11.38;5.97;;;;;;;;;;4975434;28;20072;-67
2021/09/23 00:20:43;;;;;;;8.00;6.28;;;;;;;;;;4975189;28;20051;-67
2021/09/23 00:23:10;;;;;;;7.07;5.95;;;;;;;;;;4974840;28;20434;-67
2021/09/23 00:25:36;;;;;;;8.68;6.15;;;;;;;;;;4957968;28;20417;-67
2021/09/23 00:28:04;;;;;;;8.93;6.38;;;;;;;;;;4974916;28;20065;-67
2021/09/23 00:30:31;;;;;;;10.90;6.40;;;;;;;;;;4957857;28;20051;-67
2021/09/23 00:32:58;;;;;;;10.32;7.35;;;;;;;;;;4974450;28;20066;-67
2021/09/23 00:35:25;;;;;;;7.70;6.15;;;;;;;;;;4974794;28;20051;-67
2021/09/23 00:37:52;;;;;;;7.13;5.93;;;;;;;;;;4974873;28;20061;-67
2021/09/23 00:40:20;;;;;;;8.55;6.60;;;;;;;;;;4957614;28;20520;-68
2021/09/23 00:42:47;;;;;;;8.32;5.63;;;;;;;;;;4956497;28;20046;-68
2021/09/23 00:45:16;;;;;;;7.45;5.82;;;;;;;;;;4957604;28;20057;-69
2021/09/23 00:47:43;;;;;;;8.98;6.35;;;;;;;;;;4974602;28;20524;-68
2021/09/23 00:50:10;;;;;;;8.93;6.60;;;;;;;;;;4974997;28;20047;-68
2021/09/23 00:52:37;;;;;;;9.13;5.90;;;;;;;;;;4974168;28;20042;-66
2021/09/23 00:55:08;;;;;;;10.55;6.15;;;;;;;;;;4974470;28;20053;-66
2021/09/23 00:57:35;;;;;;;8.18;6.50;;;;;;;;;;4974464;28;20065;-66
2021/09/23 01:00:04;;;;;;;7.75;6.03;;;;;;;;;;4974343;28;20528;-66
2021/09/23 01:02:31;;;;;;;9.05;6.63;;;;;;;;;;4974093;28;20050;-67
2021/09/23 01:04:58;;;;;;;7.28;6.50;;;;;;;;;;4974190;28;20054;-67
2021/09/23 01:07:25;;;;;;;8.48;6.20;;;;;;;;;;4974265;28;20489;-66
2021/09/23 01:09:53;;;;;;;7.65;5.55;;;;;;;;;;4974198;28;20054;-67
2021/09/23 01:12:21;;;;;;;8.05;5.85;;;;;;;;;;4973857;28;20047;-67
2021/09/23 01:14:49;;;;;;;7.82;5.57;;;;;;;;;;4974113;28;20062;-67
2021/09/23 01:17:16;;;;;;;10.38;6.50;;;;;;;;;;4974569;28;20490;-67
2021/09/23 01:19:44;;;;;;;11.02;6.15;;;;;;;;;;4957551;28;20054;-67
2021/09/23 01:22:12;;;;;;;6.32;5.70;;;;;;;;;;4973785;28;20043;-67
2021/09/23 01:24:39;;;;;;;8.90;6.28;;;;;;;;;;4974041;28;20138;-67
2021/09/23 01:27:07;;;;;;;9.00;6.50;;;;;;;;;;4974081;28;20050;-67
2021/09/23 01:29:35;;;;;;;8.32;6.53;;;;;;;;;;4973903;28;20058;-67
2021/09/23 01:32:04;;;;;;;8.50;6.18;;;;;;;;;;4973439;28;20047;-67
2021/09/23 01:34:31;;;;;;;10.23;7.03;;;;;;;;;;4974295;28;20051;-68
2021/09/23 01:36:57;;;;;;;10.50;6.50;;;;;;;;;;4973736;28;20057;-67
2021/09/23 01:39:25;;;;;;;12.30;6.18;;;;;;;;;;4973658;28;20061;-67
2021/09/23 01:41:53;;;;;;;10.45;6.43;;;;;;;;;;4973389;28;20121;-67
2021/09/23 01:47:44;;;;;;;7.30;6.05;;;;;;;;;;4973538;28;20058;-67
2021/09/23 01:50:11;;;;;;;10.23;6.20;;;;;;;;;;4973423;28;20060;-67
2021/09/23 01:52:38;;;;;;;9.88;6.30;;;;;;;;;;4973419;28;20062;-67
2021/09/23 01:55:05;;;;;;;8.20;6.15;;;;;;;;;;4973202;28;20055;-67
2021/09/23 01:57:32;;;;;;;11.52;6.60;;;;;;;;;;4973414;28;20105;-67
2021/09/23 01:59:58;;;;;;;8.50;5.97;;;;;;;;;;4973249;28;20059;-67
2021/09/23 02:02:25;;;;;;;9.13;6.70;;;;;;;;;;4973071;28;20073;-67
2021/09/23 02:04:54;;;;;;;10.93;6.90;;;;;;;;;;4973281;28;20058;-67
2021/09/23 02:07:22;;;;;;;6.70;5.57;;;;;;;;;;4973421;28;20430;-67
2021/09/23 02:09:49;;;;;;;10.05;6.78;;;;;;;;;;4973012;28;20138;-67
2021/09/23 02:12:17;;;;;;;9.35;6.57;;;;;;;;;;4972944;28;20047;-67
2021/09/23 02:14:44;;;;;;;7.57;6.22;;;;;;;;;;4973106;28;20506;-67
2021/09/23 02:17:11;;;;;;;7.63;6.00;;;;;;;;;;4973189;28;20129;-67
2021/09/23 02:19:38;;;;;;;13.18;7.38;;;;;;;;;;4973346;28;20051;-67
2021/09/23 02:22:04;;;;;;;9.95;7.03;;;;;;;;;;4972735;28;20129;-67
2021/09/23 02:24:31;;;;;;;8.57;6.35;;;;;;;;;;4972953;28;20059;-67
2021/09/23 02:26:58;;;;;;;8.63;6.95;;;;;;;;;;4972980;28;20054;-67
2021/09/23 02:29:24;;;;;;;7.40;6.18;;;;;;;;;;4973004;28;20061;-67
2021/09/23 02:31:51;;;;;;;10.35;6.53;;;;;;;;;;4972669;28;20057;-67
2021/09/23 02:34:18;;;;;;;11.20;6.93;;;;;;;;;;4972713;28;20505;-67
2021/09/23 02:36:44;;;;;;;9.90;6.78;;;;;;;;;;4972725;28;20510;-67
2021/09/23 02:39:11;;;;;;;11.85;7.55;;;;;;;;;;4972906;28;20047;-67
2021/09/23 02:41:38;;;;;;;9.80;7.07;;;;;;;;;;4972695;28;20055;-67
2021/09/23 02:44:05;;;;;;;10.10;6.45;;;;;;;;;;4972938;28;20418;-67
2021/09/23 02:46:32;;;;;;;9.00;6.43;;;;;;;;;;4955665;28;20046;-67
2021/09/23 02:48:59;;;;;;;9.15;6.97;;;;;;;;;;4972545;28;20074;-67
2021/09/23 02:51:25;;;;;;;12.52;7.40;;;;;;;;;;4972568;28;20051;-67
2021/09/23 02:53:52;;;;;;;11.48;7.20;;;;;;;;;;4972507;28;20051;-67
2021/09/23 02:56:19;;;;;;;10.65;6.95;;;;;;;;;;4972818;28;20109;-67
2021/09/23 02:58:47;;;;;;;10.02;6.93;;;;;;;;;;4972561;28;20050;-67
2021/09/23 03:01:15;;;;;;;11.32;6.85;;;;;;;;;;4972686;28;20482;-67
2021/09/23 03:03:42;;;;;;;10.38;6.13;;;;;;;;;;4972478;28;20051;-67
2021/09/23 03:06:12;;;;;;;10.70;7.35;;;;;;;;;;4974744;28;20579;-67
2021/09/23 03:08:40;;;;;;;12.75;6.45;;;;;;;;;;4976352;28;20387;-67
2021/09/23 03:11:06;;;;;;;10.98;6.78;;;;;;;;;;4976589;28;20053;-67
2021/09/23 03:13:33;;;;;;;10.25;6.68;;;;;;;;;;4976236;28;20051;-67
2021/09/23 03:16:00;;;;;;;9.20;6.80;;;;;;;;;;4976255;28;20569;-67
2021/09/23 03:18:27;;;;;;;10.98;6.43;;;;;;;;;;4976333;28;20481;-67
2021/09/23 03:20:54;;;;;;;10.60;7.22;;;;;;;;;;4958898;28;20065;-67
2021/09/23 03:23:20;;;;;;;13.43;6.80;;;;;;;;;;4976053;28;20057;-67
2021/09/23 03:25:48;;;;;;;10.73;6.50;;;;;;;;;;4975931;28;20055;-67
2021/09/23 03:28:14;;;;;;;12.02;7.85;;;;;;;;;;4959203;28;20425;-67
2021/09/23 03:30:41;;;;;;;12.63;7.55;;;;;;;;;;4975900;28;20430;-67
2021/09/23 03:33:08;;;;;;;12.63;6.75;;;;;;;;;;4958631;28;20043;-67
2021/09/23 03:35:38;;;;;;;11.57;7.20;;;;;;;;;;4975877;28;20047;-67
2021/09/23 03:38:05;;;;;;;12.70;7.63;;;;;;;;;;4975412;28;20426;-67
2021/09/23 03:40:32;;;;;;;11.85;6.80;;;;;;;;;;4975639;28;20050;-67
2021/09/23 03:42:58;;;;;;;10.82;6.35;;;;;;;;;;4975396;28;20506;-67
2021/09/23 03:45:25;;;;;;;8.15;6.60;;;;;;;;;;4975711;28;20057;-67
2021/09/23 03:47:52;;;;;;;9.85;6.57;;;;;;;;;;4975465;28;20046;-67
2021/09/23 03:50:19;;;;;;;11.38;7.43;;;;;;;;;;4975326;28;20053;-67
2021/09/23 03:52:46;;;;;;;12.43;7.60;;;;;;;;;;4975086;28;20046;-67
2021/09/23 03:55:15;;;;;;;13.52;6.80;;;;;;;;;;4975456;28;20046;-67
2021/09/23 03:57:44;;;;;;;9.93;6.95;;;;;;;;;;4975134;28;20062;-67
2021/09/23 04:00:12;;;;;;;10.85;6.43;;;;;;;;;;4975037;28;20409;-67
2021/09/23 04:02:39;;;;;;;9.25;6.32;;;;;;;;;;4975167;28;20062;-67
2021/09/23 04:05:07;;;;;;;9.52;6.70;;;;;;;;;;4975525;28;20058;-67
2021/09/23 04:07:34;;;;;;;10.45;6.80;;;;;;;;;;4975458;28;20078;-67
2021/09/23 04:10:01;;;;;;;9.50;6.47;;;;;;;;;;4975304;28;20141;-67
2021/09/23 04:12:27;;;;;;;11.20;7.03;;;;;;;;;;4974814;28;20576;-67
2021/09/23 04:14:54;;;;;;;9.15;7.00;;;;;;;;;;4975223;28;20055;-67
2021/09/23 04:17:21;;;;;;;10.50;7.20;;;;;;;;;;4974158;28;20505;-67
2021/09/23 04:19:47;;;;;;;11.23;6.82;;;;;;;;;;4975075;28;20065;-67
2021/09/23 04:22:14;;;;;;;11.82;7.60;;;;;;;;;;4974793;28;20043;-67
2021/09/23 04:24:41;;;;;;;10.48;6.63;;;;;;;;;;4975136;28;20076;-67
2021/09/23 04:27:08;;;;;;;9.63;6.82;;;;;;;;;;4974849;28;20050;-67
2021/09/23 04:29:34;;;;;;;13.90;7.88;;;;;;;;;;4974993;28;20054;-67
2021/09/23 04:32:01;;;;;;;10.50;7.53;;;;;;;;;;4974543;28;20051;-67
2021/09/23 04:34:28;;;;;;;9.63;7.13;;;;;;;;;;4975036;28;20047;-67
2021/09/23 04:36:54;;;;;;;9.82;7.03;;;;;;;;;;4974738;28;20051;-67
2021/09/23 04:39:22;;;;;;;8.73;6.47;;;;;;;;;;4974947;28;20054;-68
2021/09/23 04:41:49;;;;;;;10.48;7.00;;;;;;;;;;4974809;28;20062;-67
2021/09/23 04:44:15;;;;;;;10.18;6.63;;;;;;;;;;4974946;28;20058;-67
2021/09/23 04:46:42;;;;;;;8.65;6.57;;;;;;;;;;4974681;28;20057;-68
2021/09/23 04:49:09;;;;;;;12.75;7.45;;;;;;;;;;4974455;28;20417;-67
2021/09/23 04:51:35;;;;;;;8.82;6.57;;;;;;;;;;4974479;28;20053;-67
2021/09/23 04:54:03;;;;;;;12.32;6.50;;;;;;;;;;4974488;28;20054;-68
2021/09/23 04:56:30;;;;;;;13.73;7.22;;;;;;;;;;4974461;28;20054;-68
2021/09/23 04:58:57;;;;;;;14.48;7.65;;;;;;;;;;4974335;28;20406;-68
2021/09/23 05:01:24;;;;;;;17.77;7.82;;;;;;;;;;4957218;28;20328;-68
2021/09/23 05:03:51;;;;;;;13.07;6.57;;;;;;;;;;4974122;28;20133;-68
2021/09/23 05:06:18;;;;;;;10.82;7.18;;;;;;;;;;4974385;28;20078;-68
2021/09/23 05:08:45;;;;;;;15.23;8.25;;;;;;;;;;4974231;28;20417;-68
2021/09/23 05:11:11;;;;;;;13.77;8.40;;;;;;;;;;4974188;28;20065;-68
2021/09/23 05:13:38;;;;;;;11.27;6.63;;;;;;;;;;4974042;28;20057;-68
2021/09/23 05:16:05;;;;;;;15.80;7.07;;;;;;;;;;4973973;28;20057;-68
2021/09/23 05:18:32;;;;;;;12.75;7.13;;;;;;;;;;4973990;28;20047;-68
2021/09/23 05:20:59;;;;;;;12.32;7.65;;;;;;;;;;4973780;28;20069;-68
2021/09/23 05:23:26;;;;;;;14.35;7.00;;;;;;;;;;4973689;28;20047;-67
2021/09/23 05:25:53;;;;;;;12.55;6.55;;;;;;;;;;4974023;28;20086;-67
2021/09/23 05:28:20;;;;;;;9.75;7.28;;;;;;;;;;4973515;28;20059;-68
2021/09/23 05:30:47;;;;;;;10.68;6.78;;;;;;;;;;4973909;28;20050;-68
2021/09/23 05:33:14;;;;;;;10.27;6.30;;;;;;;;;;4973598;28;20085;-68
2021/09/23 05:35:41;;;;;;;11.23;6.53;;;;;;;;;;4973583;28;20482;-68
2021/09/23 05:38:08;;;;;;;13.70;7.00;;;;;;;;;;4973730;28;20062;-68
2021/09/23 05:40:35;;;;;;;10.77;6.50;;;;;;;;;;4973787;28;20055;-68
2021/09/23 05:43:01;;;;;;;11.40;6.55;;;;;;;;;;4973758;28;20059;-68
2021/09/23 05:45:28;;;;;;;7.70;6.63;;;;;;;;;;4973617;28;20050;-68
2021/09/23 05:47:55;;;;;;;11.00;7.35;;;;;;;;;;4973487;28;20050;-68
2021/09/23 05:50:22;;;;;;;13.35;7.38;;;;;;;;;;4973598;28;20407;-68
2021/09/23 05:52:48;;;;;;;14.18;7.28;;;;;;;;;;4973345;28;20070;-68
2021/09/23 05:55:15;;;;;;;11.75;7.00;;;;;;;;;;4973463;28;20061;-67
2021/09/23 05:57:42;;;;;;;14.50;7.55;;;;;;;;;;4972353;28;20059;-67
2021/09/23 06:00:14;;;;;;;9.43;7.13;;;;;;;;;;4971022;28;20498;-67
2021/09/23 06:02:41;;;;;;;8.10;5.93;;;;;;;;;;4971126;28;20054;-67
2021/09/23 06:05:09;;;;;;;12.15;6.82;;;;;;;;;;4971288;28;20055;-67
2021/09/23 06:07:35;;;;;;;9.93;7.03;;;;;;;;;;4970962;28;20051;-67
2021/09/23 06:10:04;;;;;;;12.93;7.80;;;;;;;;;;4971016;28;20062;-67
2021/09/23 06:12:30;;;;;;;13.43;8.27;;;;;;;;;;4970562;28;20054;-68
2021/09/23 06:14:57;;;;;;;16.33;8.73;;;;;;;;;;4971366;28;20058;-68
2021/09/23 06:17:24;;;;;;;13.82;8.90;;;;;;;;;;4971117;28;20387;-68
2021/09/23 06:19:51;;;;;;;12.48;9.18;;;;;;;;;;4970797;28;20073;-68
2021/09/23 06:22:17;;;;;;;16.35;9.52;;;;;;;;;;4971045;28;20405;-68
2021/09/23 06:24:45;;;;;;;14.98;8.02;;;;;;;;;;4970430;28;20054;-68
2021/09/23 06:27:11;;;;;;;12.75;8.38;;;;;;;;;;4970895;28;20051;-68
2021/09/23 06:29:38;;;;;;;17.85;9.32;;;;;;;;;;4970688;28;20536;-68
2021/09/23 06:32:05;;;;;;;14.65;9.48;;;;;;;;;;4970502;28;20042;-68
2021/09/23 06:34:32;;;;;;;15.43;8.95;;;;;;;;;;4971145;28;20332;-68
2021/09/23 06:36:59;;;;;;;11.88;8.60;;;;;;;;;;4970491;28;20051;-69
2021/09/23 06:39:25;;;;;;;12.60;9.23;;;;;;;;;;4970616;28;20065;-68
2021/09/23 06:41:53;;;;;;;13.45;9.52;;;;;;;;;;4970164;28;20352;-68
2021/09/23 06:44:19;;;;;;;13.27;8.82;;;;;;;;;;4961343;28;20082;-70
2021/09/23 06:46:46;;;;;;;12.27;9.68;;;;;;;;;;4964951;28;20054;-70
2021/09/23 06:49:13;;;;;;;13.77;9.60;;;;;;;;;;4980356;28;20057;-69
2021/09/23 06:51:39;;;;;;;14.23;9.80;;;;;;;;;;4978996;28;20064;-70
2021/09/23 06:54:07;;;;;;;14.32;9.55;;;;;;;;;;4979899;28;20519;-69
2021/09/23 06:56:34;;;;;;;14.80;10.30;;;;;;;;;;4973060;28;20141;-69
2021/09/23 06:59:01;;;;;;;12.73;9.68;;;;;;;;;;4981832;28;20493;-70
2021/09/23 07:01:28;;;;;;;15.82;10.75;;;;;;;;;;4983020;28;20057;-70
2021/09/23 07:03:55;;;;;;;14.75;10.60;;;;;;;;;;4981154;28;20528;-69
2021/09/23 07:06:22;;;;;;;17.23;10.00;;;;;;;;;;4983642;28;20050;-70
2021/09/23 07:08:49;;;;;;;13.55;9.23;;;;;;;;;;4982481;28;20058;-69
2021/09/23 07:11:15;;;;;;;12.52;9.65;;;;;;;;;;4983779;28;20054;-69
2021/09/23 07:13:42;;;;;;;16.85;10.00;;;;;;;;;;4980556;28;20043;-69
2021/09/23 07:16:09;;;;;;;14.45;9.35;;;;;;;;;;4983179;28;20061;-70
2021/09/23 07:18:37;;;;;;;12.85;9.82;;;;;;;;;;4983322;28;20078;-70
2021/09/23 07:21:05;;;;;;;14.15;9.60;;;;;;;;;;4982723;28;20056;-69
2021/09/23 07:23:32;;;;;;;16.52;9.77;;;;;;;;;;4981601;28;20093;-71
2021/09/23 07:25:58;;;;;;;12.32;9.35;;;;;;;;;;4964596;28;20420;-68
2021/09/23 07:28:25;;;;;;;15.18;9.73;;;;;;;;;;4983939;28;20081;-70
2021/09/23 07:30:52;;;;;;;15.15;8.85;;;;;;;;;;4980991;28;20520;-69
2021/09/23 07:33:19;;;;;;;14.40;9.85;;;;;;;;;;4976994;28;20046;-70
2021/09/23 07:35:46;;;;;;;13.23;10.50;;;;;;;;;;4981725;28;20073;-71
2021/09/23 07:38:14;;;;;;;15.65;9.70;;;;;;;;;;4980731;28;20413;-65
2021/09/23 07:40:40;;;;;;;14.75;9.57;;;;;;;;;;4979889;28;20521;-65
2021/09/23 07:43:07;;;;;;;16.05;9.60;;;;;;;;;;4983027;28;20054;-67
2021/09/23 07:45:34;;;;;;;12.10;9.38;;;;;;;;;;4982112;28;20057;-69
2021/09/23 07:48:01;;;;;;;13.90;10.10;;;;;;;;;;4981627;28;20173;-71
2021/09/23 07:50:27;;;;;;;13.82;9.07;;;;;;;;;;4980667;28;20059;-66
2021/09/23 07:52:54;;;;;;;16.73;9.60;;;;;;;;;;4984536;28;20062;-66
2021/09/23 07:55:21;;;;;;;13.48;9.27;;;;;;;;;;4984921;28;20145;-67
2021/09/23 07:57:48;;;;;;;17.30;9.93;;;;;;;;;;4984926;28;20058;-67
2021/09/23 08:00:15;;;;;;;15.05;11.05;;;;;;;;;;4986775;28;20042;-67
2021/09/23 08:02:43;;;;;;;11.52;8.65;;;;;;;;;;4984529;28;20070;-67
2021/09/23 08:05:10;;;;;;;12.20;8.20;;;;;;;;;;4987266;28;20130;-67
2021/09/23 08:07:37;;;;;;;12.00;8.10;;;;;;;;;;4983960;28;20051;-70
2021/09/23 08:10:04;;;;;;;12.68;8.88;;;;;;;;;;4980147;28;20133;-71
2021/09/23 08:12:31;;;;;;;12.30;8.18;;;;;;;;;;4985120;28;20054;-70
2021/09/23 08:14:57;;;;;;;13.55;8.25;;;;;;;;;;4974509;28;20057;-74
2021/09/23 08:17:24;;;;;;;11.25;8.35;;;;;;;;;;4978887;28;20063;-66
2021/09/23 08:19:51;;;;;;;11.55;7.88;;;;;;;;;;4979514;28;20062;-66
2021/09/23 08:22:18;;;;;;;11.90;8.35;;;;;;;;;;4984783;28;20051;-66
2021/09/23 08:24:46;;;;;;;11.93;7.07;;;;;;;;;;4986224;28;20124;-66
2021/09/23 08:27:12;;;;;;;10.27;7.32;;;;;;;;;;4983230;28;20494;-66
2021/09/23 08:29:39;;;;;;;9.55;7.03;;;;;;;;;;4985628;28;20055;-66
2021/09/23 08:32:06;;;;;;;11.40;6.50;;;;;;;;;;4983876;28;20057;-66
2021/09/23 08:34:33;;;;;;;13.45;6.95;;;;;;;;;;4985041;28;20050;-66
2021/09/23 08:36:59;;;;;;;9.88;6.95;;;;;;;;;;4967013;28;20056;-66
2021/09/23 08:39:26;;;;;;;10.05;6.97;;;;;;;;;;4984422;28;20050;-66
2021/09/23 08:41:52;;;;;;;16.35;8.35;;;;;;;;;;4985863;28;20057;-66
2021/09/23 08:44:19;;;;;;;15.10;7.32;;;;;;;;;;4980563;28;20077;-66
2021/09/23 08:46:46;;;;;;;10.20;7.05;;;;;;;;;;4958558;28;20092;-66
2021/09/23 08:49:13;;;;;;;12.05;7.57;;;;;;;;;;4981270;28;20161;-66
2021/09/23 08:51:40;;;;;;;10.52;6.53;;;;;;;;;;4983801;28;20046;-72
2021/09/23 08:54:07;;;;;;;9.57;6.38;;;;;;;;;;4983974;28;20498;-73
2021/09/23 08:56:34;;;;;;;8.27;5.43;;;;;;;;;;4969803;28;20394;-73
2021/09/23 08:59:01;;;;;;;11.05;5.68;;;;;;;;;;4983771;28;20050;-73
2021/09/23 09:01:33;;;;;;;12.07;6.93;;;;;;;;;;4985292;28;20053;-66
2021/09/23 09:04:02;;;;;;;13.35;5.60;;;;;;;;;;4982548;28;20409;-65
2021/09/23 09:06:29;;;;;;;9.85;6.03;;;;;;;;;;4984107;28;20498;-67
2021/09/23 09:08:56;;;;;;;6.65;5.10;;;;;;;;;;4985292;28;20054;-67
2021/09/23 09:11:23;;;;;;;8.68;4.53;;;;;;;;;;4966287;28;20494;-70
2021/09/23 09:13:55;;;;;;;6.43;4.45;;;;;;;;;;4984179;28;20267;-71
2021/09/23 09:16:24;;;;;;;6.57;3.72;;;;;;;;;;4981139;28;20055;-72
2021/09/23 09:18:54;;;;;;;6.10;3.53;;;;;;;;;;4984668;28;20050;-71
2021/09/23 09:21:23;;;;;;;4.72;3.17;;;;;;;;;;4981106;28;20559;-71
2021/09/23 09:23:56;;;;;;;6.63;4.38;;;;;;;;;;4966787;28;20057;-71
2021/09/23 09:26:25;;;;;;;9.48;4.70;;;;;;;;;;4985453;28;20141;-71
2021/09/23 09:28:54;;;;;;;5.85;3.45;;;;;;;;;;4980549;28;20046;-71
2021/09/23 09:31:22;;;;;;;5.18;3.42;;;;;;;;;;4984784;28;20080;-72
2021/09/23 09:33:50;;;;;;;6.97;3.58;;;;;;;;;;4983474;28;20361;-72
2021/09/23 09:36:42;;;;;;;7.20;3.35;;;;;;;;;;4981196;28;20061;-72
2021/09/23 09:39:14;;;;;;;6.15;3.45;;;;;;;;;;4980021;28;20109;-72
2021/09/23 09:41:42;;;;;;;4.97;2.85;;;;;;;;;;4982026;28;20147;-71
2021/09/23 09:44:11;;;;;;;5.20;3.10;;;;;;;;;;4966656;28;20051;-72
2021/09/23 09:46:50;;;;;;;7.55;3.45;;;;;;;;;;4985112;28;20421;-72
2021/09/23 09:49:19;;;;;;;6.97;3.40;;;;;;;;;;4980575;28;20043;-71
2021/09/23 09:51:49;;;;;;;7.03;2.70;;;;;;;;;;4984403;28;20056;-72
2021/09/23 09:54:17;;;;;;;3.90;2.63;;;;;;;;;;4985779;28;20504;-72
2021/09/23 09:56:47;;;;;;;9.10;3.00;;;;;;;;;;4983828;28;20167;-72
2021/09/23 09:59:18;;;;;;;8.95;3.20;;;;;;;;;;4984954;28;20327;-72
2021/09/23 10:01:53;;;;;;;8.52;3.05;;;;;;;;;;4980461;28;20054;-72
2021/09/23 10:04:22;;;;;;;5.90;3.28;;;;;;;;;;4984445;28;20046;-72
2021/09/23 10:06:48;;;;;;;5.53;3.10;;;;;;;;;;4981394;28;20525;-72
2021/09/23 10:09:16;;;;;;;5.72;3.17;;;;;;;;;;4984075;28;20054;-72
2021/09/23 10:11:45;;;;;;;5.75;3.03;;;;;;;;;;4983755;28;20521;-73
2021/09/23 10:14:19;;;;;;;5.47;3.08;;;;;;;;;;4982449;28;20045;-73
2021/09/23 10:16:46;;;;;;;5.25;2.88;;;;;;;;;;4977689;28;20057;-72
2021/09/23 10:19:14;;;;;;;4.82;3.13;;;;;;;;;;4979637;28;20133;-72
2021/09/23 10:21:41;;;;;;;8.35;2.88;;;;;;;;;;4947053;28;20141;-72
2021/09/23 10:24:09;;;;;;;4.20;3.00;;;;;;;;;;4966012;28;20047;-71
2021/09/23 10:26:39;;;;;;;3.97;2.63;;;;;;;;;;4967149;28;20108;-72
2021/09/23 10:29:06;;;;;;;4.60;2.58;;;;;;;;;;4932822;28;20153;-72
2021/09/23 10:31:34;;;;;;;4.88;2.42;;;;;;;;;;4966066;28;20506;-72
2021/09/23 10:34:06;;;;;;;3.85;2.60;;;;;;;;;;4982441;28;20241;-72
2021/09/23 10:36:34;;;;;;;4.72;2.90;;;;;;;;;;4979199;28;20047;-65
2021/09/23 10:39:05;;;;;;;3.45;2.70;;;;;;;;;;4976273;28;20062;-71
2021/09/23 10:41:34;;;;;;;5.53;2.70;;;;;;;;;;4977835;28;20054;-70
2021/09/23 10:44:00;;;;;;;7.15;2.55;;;;;;;;;;4979901;28;20050;-70
2021/09/23 10:46:27;;;;;;;4.65;2.65;;;;;;;;;;4979023;28;20066;-71
2021/09/23 10:48:55;;;;;;;7.30;2.53;;;;;;;;;;4981337;28;20528;-71
2021/09/23 10:51:22;;;;;;;6.40;2.97;;;;;;;;;;4981536;28;20601;-71
2021/09/23 10:53:57;;;;;;;5.43;2.80;;;;;;;;;;4963101;28;20050;-71
2021/09/23 10:56:26;;;;;;;4.50;2.83;;;;;;;;;;4973661;28;20055;-70
2021/09/23 10:58:53;;;;;;;6.05;2.58;;;;;;;;;;4963167;28;20055;-71
2021/09/23 11:01:29;;;;;;;4.65;2.20;;;;;;;;;;4964581;28;20549;-70
2021/09/23 11:04:01;;;;;;;4.22;2.63;;;;;;;;;;4979606;28;20498;-71
2021/09/23 11:06:37;;;;;;;5.10;2.53;;;;;;;;;;4980006;28;20486;-71
2021/09/23 11:09:17;;;;;;;4.20;2.30;;;;;;;;;;4976088;28;20054;-72
2021/09/23 11:11:46;;;;;;;3.70;2.58;;;;;;;;;;4981465;28;20069;-72
2021/09/23 11:14:14;;;;;;;5.85;2.42;;;;;;;;;;4962939;28;20057;-72
2021/09/23 11:16:45;;;;;;;3.10;2.50;;;;;;;;;;4982420;28;20133;-71
2021/09/23 11:19:12;;;;;;;5.00;2.38;;;;;;;;;;4960515;28;20047;-69
2021/09/23 11:21:38;;;;;;;4.90;2.92;;;;;;;;;;4946355;28;20051;-73
2021/09/23 11:24:05;;;;;;;4.90;2.47;;;;;;;;;;4963394;28;20494;-74
2021/09/23 11:26:32;;;;;;;3.03;2.72;;;;;;;;;;4981863;28;20078;-74
2021/09/23 11:28:58;;;;;;;4.03;2.58;;;;;;;;;;4968598;28;20047;-73
2021/09/23 11:31:25;;;;;;;5.03;2.22;;;;;;;;;;4969634;28;20050;-71
2021/09/23 11:33:52;;;;;;;3.25;2.03;;;;;;;;;;4983761;28;20580;-72
2021/09/23 11:36:25;;;;;;;4.68;2.10;;;;;;;;;;4986614;28;20065;-76
2021/09/23 11:38:55;;;;;;;2.63;2.05;;;;;;;;;;4966699;28;20386;-76
2021/09/23 11:41:22;;;;;;;3.92;2.38;;;;;;;;;;4984830;28;20074;-70
2021/09/23 11:43:50;;;;;;;6.15;2.50;;;;;;;;;;4949213;28;20062;-70
2021/09/23 11:46:17;;;;;;;2.13;1.92;;;;;;;;;;4983600;28;20053;-70
2021/09/23 11:48:43;;;;;;;3.67;2.30;;;;;;;;;;4983656;28;20141;-71
2021/09/23 11:51:14;;;;;;;3.17;2.30;;;;;;;;;;4968356;28;20055;-70
2021/09/23 11:53:42;;;;;;;3.42;1.92;;;;;;;;;;4984863;28;20065;-70
2021/09/23 11:56:13;;;;;;;4.93;2.50;;;;;;;;;;4968781;28;20055;-74
2021/09/23 11:58:44;;;;;;;3.97;2.33;;;;;;;;;;4933870;28;20078;-71
2021/09/23 12:01:11;;;;;;;4.47;2.38;;;;;;;;;;4966623;28;20133;-74
2021/09/23 12:03:43;;;;;;;6.45;2.10;;;;;;;;;;4968015;28;20425;-74
2021/09/23 12:06:12;;;;;;;3.33;2.20;;;;;;;;;;4981362;28;20058;-73
2021/09/23 12:08:39;;;;;;;4.50;2.00;;;;;;;;;;4980267;28;20065;-72
2021/09/23 12:11:11;;;;;;;3.63;1.75;;;;;;;;;;4940952;28;20058;-72
2021/09/23 12:13:41;;;;;;;2.53;1.65;;;;;;;;;;4966713;28;20586;-71
2021/09/23 12:16:15;;;;;;;2.28;1.90;;;;;;;;;;4967312;28;20061;-74
2021/09/23 12:18:43;;;;;;;3.33;1.90;;;;;;;;;;4980548;28;20058;-67
2021/09/23 12:21:11;;;;;;;2.88;1.63;;;;;;;;;;4982274;28;20058;-67
2021/09/23 12:23:40;;;;;;;2.75;1.75;;;;;;;;;;4983587;28;20056;-67
2021/09/23 12:26:12;;;;;;;2.25;1.70;;;;;;;;;;4983164;28;20051;-67
2021/09/23 12:28:50;;;;;;;3.28;1.65;;;;;;;;;;4984942;28;20054;-67
2021/09/23 12:31:46;;;;;;;1.58;1.45;;;;;;;;;;4980783;28;20130;-67
2021/09/23 12:34:19;;;;;;;3.30;1.92;;;;;;;;;;4966443;28;20046;-66
2021/09/23 12:36:48;;;;;;;2.05;1.80;;;;;;;;;;4983789;28;20054;-67
2021/09/23 12:39:25;;;;;;;3.80;1.90;;;;;;;;;;4984206;28;20047;-67
2021/09/23 12:41:55;;;;;;;3.78;1.67;;;;;;;;;;4978270;28;20054;-67
2021/09/23 12:44:24;;;;;;;2.50;1.67;;;;;;;;;;4981995;28;20054;-67
2021/09/23 12:47:12;;;;;;;3.83;1.90;;;;;;;;;;4984172;28;20058;-67
2021/09/23 12:49:49;;;;;;;3.53;1.73;;;;;;;;;;4979874;28;20057;-67
2021/09/23 12:52:21;;;;;;;2.67;1.98;;;;;;;;;;4983751;28;20086;-67
2021/09/23 12:54:48;;;;;;;;;;;;;;;;;;4984773;28;20070;-67
2021/09/23 12:57:35;;;;;;;1.55;1.40;;;;;;;;;;4982724;28;20411;-67
2021/09/23 13:00:16;;;;;;;2.75;1.55;;;;;;;;;;4984352;28;20142;-67
2021/09/23 13:02:45;;;;;;;2.70;1.88;;;;;;;;;;4980729;28;20051;-67
2021/09/23 13:05:15;;;;;;;4.03;2.35;;;;;;;;;;4983717;28;20096;-67
2021/09/23 13:07:49;;;;;;;4.75;2.00;;;;;;;;;;4981822;28;20050;-67
2021/09/23 13:10:21;;;;;;;4.32;2.50;;;;;;;;;;4981746;28;20445;-67
2021/09/23 13:12:49;;;;;;;;;;;;;;;;;;4962120;28;20081;-67
2021/09/23 13:15:43;;;;;;;7.07;2.72;;;;;;;;;;4980839;28;20016;-67
2021/09/23 13:18:24;;;;;;;5.40;2.97;;;;;;;;;;4980950;28;20409;-67
2021/09/23 13:20:57;;;;;;;5.10;2.42;;;;;;;;;;4963662;28;20060;-67
2021/09/23 13:23:26;;;;;;;4.53;2.83;;;;;;;;;;4978952;28;20485;-67
2021/09/23 13:26:07;;;;;;;4.80;2.03;;;;;;;;;;4984714;28;20050;-67
2021/09/23 13:28:36;;;;;;;5.03;2.33;;;;;;;;;;4981675;28;20046;-66
2021/09/23 13:31:07;;;;;;;4.72;2.30;;;;;;;;;;4985402;28;20484;-67
2021/09/23 13:33:35;;;;;;;6.55;2.67;;;;;;;;;;4982133;28;20425;-67
2021/09/23 13:36:06;;;;;;;3.88;2.17;;;;;;;;;;4984844;28;20105;-67
2021/09/23 13:38:34;;;;;;;3.20;1.95;;;;;;;;;;4982212;28;20134;-67
2021/09/23 13:41:01;;;;;;;3.60;2.00;;;;;;;;;;4981439;28;20078;-67
2021/09/23 13:43:28;;;;;;;5.00;2.00;;;;;;;;;;4981699;28;20058;-67
2021/09/23 13:45:55;;;;;;;2.67;2.13;;;;;;;;;;4967181;28;20129;-67
2021/09/23 13:48:28;;;;;;;2.78;1.92;;;;;;;;;;4984172;28;20054;-67
2021/09/23 13:50:56;;;;;;;3.60;2.08;;;;;;;;;;4983517;28;20078;-68
2021/09/23 13:53:22;;;;;;;2.58;1.95;;;;;;;;;;4964376;28;20145;-68
2021/09/23 13:55:50;;;;;;;5.32;2.08;;;;;;;;;;4982264;28;20416;-68
2021/09/23 13:58:18;;;;;;;6.60;1.98;;;;;;;;;;4984685;28;20529;-68
2021/09/23 14:00:45;;;;;;;2.78;1.90;;;;;;;;;;4980572;28;20050;-68
2021/09/23 14:03:16;;;;;;;2.55;2.00;;;;;;;;;;4984111;28;20141;-67
2021/09/23 14:05:44;;;;;;;4.72;1.70;;;;;;;;;;4982194;28;20399;-67
2021/09/23 14:08:11;;;;;;;2.08;1.90;;;;;;;;;;4983250;28;20121;-67
2021/09/23 14:10:38;;;;;;;2.50;1.88;;;;;;;;;;4984310;28;20422;-68
2021/09/23 14:13:04;;;;;;;3.25;2.30;;;;;;;;;;4982855;28;20469;-68
2021/09/23 14:15:31;;;;;;;4.13;1.98;;;;;;;;;;4984727;28;20153;-68
2021/09/23 14:17:58;;;;;;;2.83;2.50;;;;;;;;;;4980460;28;20112;-72
2021/09/23 14:20:33;;;;;;;3.03;2.42;;;;;;;;;;4974360;28;20429;-70
2021/09/23 14:23:00;;;;;;;8.18;2.45;;;;;;;;;;4983311;28;20105;-73
2021/09/23 14:25:28;;;;;;;2.50;2.30;;;;;;;;;;4983682;28;20077;-68
2021/09/23 14:27:54;;;;;;;4.20;2.60;;;;;;;;;;4964400;28;20058;-69
2021/09/23 14:30:21;;;;;;;3.75;2.80;;;;;;;;;;4971303;28;20149;-69
2021/09/23 14:32:48;;;;;;;2.83;2.28;;;;;;;;;;4981456;28;20055;-70
2021/09/23 14:35:15;;;;;;;2.83;1.90;;;;;;;;;;4980999;28;20498;-69
2021/09/23 14:37:42;;;;;;;3.72;2.08;;;;;;;;;;4972330;28;20086;-70
2021/09/23 14:40:09;;;;;;;3.03;2.15;;;;;;;;;;4980971;28;20410;-70
2021/09/23 14:42:36;;;;;;;6.63;2.75;;;;;;;;;;4981669;28;20062;-70
2021/09/23 14:45:04;;;;;;;4.70;2.33;;;;;;;;;;4982008;28;20146;-69
2021/09/23 14:47:32;;;;;;;1.90;1.80;;;;;;;;;;4960427;28;20055;-69
2021/09/23 14:49:58;;;;;;;4.53;2.15;;;;;;;;;;4981633;28;20486;-68